createdAt,value
2016-08-05T00:00:44.813Z,1008.72
2016-08-05T00:01:44.813Z,1008.75
2016-08-05T00:02:44.812Z,1008.74
2016-08-05T00:03:44.813Z,1008.8
2016-08-05T00:04:44.809Z,1008.72
2016-08-05T00:05:44.809Z,1008.72
2016-08-05T00:06:44.810Z,1008.72
2016-08-05T00:07:44.807Z,1008.64
2016-08-05T00:08:44.806Z,1008.68
2016-08-05T00:09:44.807Z,1008.69
2016-08-05T00:10:44.804Z,1008.71
2016-08-05T00:11:44.803Z,1008.8
2016-08-05T00:12:44.804Z,1008.87
2016-08-05T00:13:44.802Z,1008.84
2016-08-05T00:14:44.801Z,1008.85
2016-08-05T00:15:44.802Z,1008.81
2016-08-05T00:16:44.799Z,1008.73
2016-08-05T00:17:44.797Z,1008.68
2016-08-05T00:18:44.797Z,1008.69
2016-08-05T00:20:44.796Z,1008.82
2016-08-05T00:21:44.794Z,1008.89
2016-08-05T00:22:44.795Z,1008.96
2016-08-05T00:23:44.794Z,1009.02
2016-08-05T00:24:44.791Z,1009
2016-08-05T00:25:44.791Z,1008.98
2016-08-05T00:26:45.976Z,1008.96
2016-08-05T00:27:46.225Z,1008.95
2016-08-05T00:28:44.786Z,1008.95
2016-08-05T00:29:44.787Z,1008.93
2016-08-05T00:30:44.785Z,1008.93
2016-08-05T00:31:44.784Z,1008.96
2016-08-05T00:32:44.800Z,1008.99
2016-08-05T00:33:44.781Z,1008.99
2016-08-05T00:34:44.781Z,1009
2016-08-05T00:35:44.783Z,1009.04
2016-08-05T00:36:44.778Z,1009.05
2016-08-05T00:37:44.780Z,1009.04
2016-08-05T00:38:44.779Z,1009.07
2016-08-05T00:39:44.776Z,1009.04
2016-08-05T00:40:44.774Z,1009.05
2016-08-05T00:41:44.772Z,1009.04
2016-08-05T00:42:44.775Z,1009.02
2016-08-05T00:43:44.770Z,1009.02
2016-08-05T00:44:44.770Z,1009.02
2016-08-05T00:45:44.770Z,1008.98
2016-08-05T00:46:44.767Z,1009
2016-08-05T00:47:44.765Z,1008.94
2016-08-05T00:48:44.764Z,1008.92
2016-08-05T00:49:44.771Z,1008.86
2016-08-05T00:50:44.764Z,1008.74
2016-08-05T00:51:44.763Z,1008.75
2016-08-05T00:52:44.761Z,1008.71
2016-08-05T00:53:44.758Z,1008.71
2016-08-05T00:54:44.758Z,1008.73
2016-08-05T00:55:44.756Z,1008.74
2016-08-05T00:56:44.754Z,1008.83
2016-08-05T00:57:45.357Z,1008.83
2016-08-05T00:58:45.655Z,1008.85
2016-08-05T00:59:44.751Z,1008.89
2016-08-05T01:00:44.752Z,1008.97
2016-08-05T01:01:44.752Z,1008.99
2016-08-05T01:02:44.748Z,1009.01
2016-08-05T01:03:44.747Z,1009.04
2016-08-05T01:04:44.745Z,1009.11
2016-08-05T01:05:44.749Z,1009.17
2016-08-05T01:06:44.743Z,1009.22
2016-08-05T01:07:44.739Z,1009.23
2016-08-05T01:08:44.737Z,1009.21
2016-08-05T01:09:44.736Z,1009.22
2016-08-05T01:10:44.735Z,1009.17
2016-08-05T01:11:44.736Z,1009.22
2016-08-05T01:12:44.732Z,1009.22
2016-08-05T01:13:44.930Z,1009.25
2016-08-05T01:14:44.731Z,1009.22
2016-08-05T01:15:44.730Z,1009.23
2016-08-05T01:16:44.730Z,1009.25
2016-08-05T01:17:44.725Z,1009.25
2016-08-05T01:18:44.722Z,1009.26
2016-08-05T01:19:44.722Z,1009.26
2016-08-05T01:20:44.719Z,1009.24
2016-08-05T01:21:44.717Z,1009.27
2016-08-05T01:22:44.716Z,1009.27
2016-08-05T01:23:44.713Z,1009.29
2016-08-05T01:24:44.714Z,1009.29
2016-08-05T01:25:44.711Z,1009.26
2016-08-05T01:26:44.710Z,1009.29
2016-08-05T01:27:44.707Z,1009.22
2016-08-05T01:28:44.706Z,1009.22
2016-08-05T01:29:44.707Z,1009.17
2016-08-05T01:30:44.704Z,1009.17
2016-08-05T01:31:44.700Z,1009.15
2016-08-05T01:32:44.701Z,1009.16
2016-08-05T01:33:44.698Z,1009.16
2016-08-05T01:34:44.695Z,1009.19
2016-08-05T01:35:45.512Z,1009.15
2016-08-05T01:37:44.692Z,1009.17
2016-08-05T01:38:44.689Z,1009.19
2016-08-05T01:39:44.691Z,1009.13
2016-08-05T01:40:44.686Z,1009.11
2016-08-05T01:41:44.781Z,1009.07
2016-08-05T01:42:44.686Z,1009.07
2016-08-05T01:43:44.682Z,1009.07
2016-08-05T01:44:44.683Z,1009.12
2016-08-05T01:45:44.678Z,1009.11
2016-08-05T01:46:44.677Z,1009.13
2016-08-05T01:47:44.674Z,1009.11
2016-08-05T01:48:44.674Z,1009.08
2016-08-05T01:49:45.326Z,1009.1
2016-08-05T01:50:44.962Z,1009.05
2016-08-05T01:51:44.670Z,1009.05
2016-08-05T01:52:44.664Z,1009.05
2016-08-05T01:53:44.665Z,1009.03
2016-08-05T01:54:44.660Z,1009.01
2016-08-05T01:55:44.661Z,1009.01
2016-08-05T01:56:44.659Z,1009.06
2016-08-05T01:57:44.656Z,1009.07
2016-08-05T01:58:44.652Z,1009.06
2016-08-05T01:59:44.653Z,1009.13
2016-08-05T02:00:44.748Z,1009.14
2016-08-05T02:01:44.646Z,1009.13
2016-08-05T02:02:44.644Z,1009.17
2016-08-05T02:03:44.642Z,1009.09
2016-08-05T02:04:44.642Z,1009.08
2016-08-05T02:05:44.639Z,1009.05
2016-08-05T02:06:44.639Z,1009.01
2016-08-05T02:07:44.634Z,1009.04
2016-08-05T02:08:44.633Z,1009.03
2016-08-05T02:09:44.632Z,1009.05
2016-08-05T02:10:44.631Z,1009.09
2016-08-05T02:11:44.626Z,1009.07
2016-08-05T02:12:44.624Z,1009.12
2016-08-05T02:13:44.621Z,1009.16
2016-08-05T02:14:44.619Z,1009.21
2016-08-05T02:15:44.617Z,1009.22
2016-08-05T02:16:44.617Z,1009.26
2016-08-05T02:17:44.613Z,1009.28
2016-08-05T02:18:44.612Z,1009.3
2016-08-05T02:19:44.608Z,1009.31
2016-08-05T02:20:44.607Z,1009.29
2016-08-05T02:21:44.603Z,1009.29
2016-08-05T02:22:44.602Z,1009.27
2016-08-05T02:23:44.600Z,1009.29
2016-08-05T02:24:45.751Z,1009.28
2016-08-05T02:25:44.593Z,1009.31
2016-08-05T02:26:44.593Z,1009.32
2016-08-05T02:27:44.589Z,1009.32
2016-08-05T02:28:44.590Z,1009.3
2016-08-05T02:29:44.586Z,1009.33
2016-08-05T02:30:44.582Z,1009.28
2016-08-05T02:31:44.582Z,1009.27
2016-08-05T02:32:44.578Z,1009.24
2016-08-05T02:33:44.575Z,1009.26
2016-08-05T02:34:44.575Z,1009.22
2016-08-05T02:35:44.570Z,1009.25
2016-08-05T02:36:44.571Z,1009.22
2016-08-05T02:37:44.565Z,1009.19
2016-08-05T02:38:44.563Z,1009.2
2016-08-05T02:39:44.561Z,1009.19
2016-08-05T02:40:44.561Z,1009.2
2016-08-05T02:41:44.557Z,1009.16
2016-08-05T02:42:44.554Z,1009.17
2016-08-05T02:43:44.552Z,1009.13
2016-08-05T02:44:44.552Z,1009.1
2016-08-05T02:45:44.549Z,1009.08
2016-08-05T02:46:44.545Z,1009.05
2016-08-05T02:47:44.545Z,1009.01
2016-08-05T02:48:44.542Z,1009.03
2016-08-05T02:49:44.542Z,1009.05
2016-08-05T02:50:44.537Z,1009.05
2016-08-05T02:51:44.534Z,1009.02
2016-08-05T02:52:44.535Z,1009.01
2016-08-05T02:53:44.529Z,1008.92
2016-08-05T02:54:44.540Z,1008.91
2016-08-05T02:55:44.524Z,1008.9
2016-08-05T02:56:44.524Z,1008.89
2016-08-05T02:57:44.522Z,1008.89
2016-08-05T02:58:44.516Z,1008.94
2016-08-05T02:59:44.514Z,1008.91
2016-08-05T03:00:44.515Z,1008.92
2016-08-05T03:01:44.510Z,1008.9
2016-08-05T03:02:44.509Z,1008.95
2016-08-05T03:03:44.507Z,1008.95
2016-08-05T03:04:44.502Z,1008.96
2016-08-05T03:05:44.502Z,1008.97
2016-08-05T03:06:44.496Z,1008.98
2016-08-05T03:07:44.497Z,1008.97
2016-08-05T03:08:44.491Z,1009.01
2016-08-05T03:09:44.489Z,1009.04
2016-08-05T03:10:44.486Z,1009.09
2016-08-05T03:11:44.483Z,1009.1
2016-08-05T03:12:44.483Z,1009.15
2016-08-05T03:13:44.480Z,1009.18
2016-08-05T03:14:44.476Z,1009.17
2016-08-05T03:15:44.473Z,1009.14
2016-08-05T03:16:44.472Z,1009.13
2016-08-05T03:17:44.470Z,1009.09
2016-08-05T03:18:44.469Z,1009.08
2016-08-05T03:19:44.463Z,1009.05
2016-08-05T03:20:44.459Z,1009.05
2016-08-05T03:21:44.460Z,1009.06
2016-08-05T03:22:44.457Z,1009.13
2016-08-05T03:23:44.456Z,1009.05
2016-08-05T03:24:44.450Z,1009.07
2016-08-05T03:25:44.448Z,1009.05
2016-08-05T03:26:44.446Z,1009.01
2016-08-05T03:27:44.441Z,1009
2016-08-05T03:28:44.442Z,1008.95
2016-08-05T03:29:44.440Z,1009.02
2016-08-05T03:30:44.438Z,1008.98
2016-08-05T03:31:44.432Z,1008.96
2016-08-05T03:32:44.432Z,1008.98
2016-08-05T03:33:45.279Z,1008.97
2016-08-05T03:34:44.425Z,1008.94
2016-08-05T03:35:44.423Z,1008.97
2016-08-05T03:36:44.424Z,1008.94
2016-08-05T03:37:44.419Z,1008.93
2016-08-05T03:38:44.418Z,1009
2016-08-05T03:39:44.412Z,1008.97
2016-08-05T03:40:44.411Z,1008.98
2016-08-05T03:41:44.409Z,1009.03
2016-08-05T03:42:44.409Z,1009.06
2016-08-05T03:44:44.902Z,1009.08
2016-08-05T03:45:44.401Z,1009.09
2016-08-05T03:46:44.397Z,1009.1
2016-08-05T03:47:44.393Z,1009.06
2016-08-05T03:48:44.393Z,1009.07
2016-08-05T03:49:44.391Z,1009.05
2016-08-05T03:50:44.387Z,1009.04
2016-08-05T03:51:44.384Z,1009.03
2016-08-05T03:52:44.384Z,1009.03
2016-08-05T03:53:44.378Z,1008.99
2016-08-05T03:54:45.326Z,1008.98
2016-08-05T03:56:44.371Z,1008.92
2016-08-05T03:57:45.132Z,1008.9
2016-08-05T03:58:44.368Z,1008.89
2016-08-05T03:59:44.364Z,1008.9
2016-08-05T04:00:44.460Z,1008.87
2016-08-05T04:01:44.359Z,1008.87
2016-08-05T04:03:44.356Z,1008.86
2016-08-05T04:04:44.351Z,1008.87
2016-08-05T04:05:44.349Z,1008.88
2016-08-05T04:06:44.349Z,1008.9
2016-08-05T04:07:44.346Z,1008.91
2016-08-05T04:08:44.341Z,1008.88
2016-08-05T04:09:44.341Z,1008.87
2016-08-05T04:11:44.335Z,1008.86
2016-08-05T04:12:44.331Z,1008.87
2016-08-05T04:13:44.331Z,1008.9
2016-08-05T04:14:44.327Z,1008.91
2016-08-05T04:15:44.325Z,1008.94
2016-08-05T04:16:44.322Z,1008.97
2016-08-05T04:17:44.320Z,1008.98
2016-08-05T04:18:44.316Z,1008.95
2016-08-05T04:19:44.314Z,1008.97
2016-08-05T04:20:44.313Z,1008.97
2016-08-05T04:21:44.312Z,1008.99
2016-08-05T04:22:44.309Z,1008.97
2016-08-05T04:23:44.306Z,1008.96
2016-08-05T04:24:44.302Z,1008.98
2016-08-05T04:25:44.299Z,1009
2016-08-05T04:26:44.296Z,1008.98
2016-08-05T04:27:44.293Z,1008.97
2016-08-05T04:28:44.290Z,1009.01
2016-08-05T04:29:44.289Z,1009.03
2016-08-05T04:30:44.287Z,1009.05
2016-08-05T04:31:44.283Z,1009.05
2016-08-05T04:32:44.281Z,1009.1
2016-08-05T04:33:44.276Z,1009.14
2016-08-05T04:34:44.276Z,1009.15
2016-08-05T04:35:44.272Z,1009.19
2016-08-05T04:36:44.269Z,1009.24
2016-08-05T04:37:44.266Z,1009.25
2016-08-05T04:38:44.268Z,1009.27
2016-08-05T04:39:44.260Z,1009.28
2016-08-05T04:40:44.260Z,1009.26
2016-08-05T04:41:44.256Z,1009.26
2016-08-05T04:42:44.255Z,1009.26
2016-08-05T04:43:44.250Z,1009.29
2016-08-05T04:44:44.249Z,1009.29
2016-08-05T04:45:44.248Z,1009.23
2016-08-05T04:46:44.244Z,1009.29
2016-08-05T04:47:44.242Z,1009.24
2016-08-05T04:48:44.238Z,1009.24
2016-08-05T04:49:44.242Z,1009.27
2016-08-05T04:50:44.234Z,1009.25
2016-08-05T04:51:44.230Z,1009.24
2016-08-05T04:54:44.221Z,1009.33
2016-08-05T04:55:44.570Z,1009.33
2016-08-05T04:56:44.369Z,1009.35
2016-08-05T04:57:44.214Z,1009.38
2016-08-05T04:58:44.211Z,1009.38
2016-08-05T04:59:44.207Z,1009.38
2016-08-05T05:00:44.208Z,1009.4
2016-08-05T05:01:44.205Z,1009.39
2016-08-05T05:02:44.206Z,1009.39
2016-08-05T05:03:44.197Z,1009.44
2016-08-05T05:04:44.295Z,1009.44
2016-08-05T05:05:44.495Z,1009.48
2016-08-05T05:06:44.190Z,1009.48
2016-08-05T05:07:44.187Z,1009.46
2016-08-05T05:08:44.186Z,1009.5
2016-08-05T05:09:44.182Z,1009.47
2016-08-05T05:10:44.179Z,1009.46
2016-08-05T05:12:44.174Z,1009.48
2016-08-05T05:13:44.184Z,1009.53
2016-08-05T05:14:44.168Z,1009.51
2016-08-05T05:15:44.166Z,1009.5
2016-08-05T05:16:44.165Z,1009.53
2016-08-05T05:17:44.161Z,1009.54
2016-08-05T05:18:44.464Z,1009.53
2016-08-05T05:19:44.156Z,1009.48
2016-08-05T05:20:44.157Z,1009.49
2016-08-05T05:21:44.151Z,1009.45
2016-08-05T05:22:44.149Z,1009.44
2016-08-05T05:23:44.149Z,1009.45
2016-08-05T05:24:44.144Z,1009.4
2016-08-05T05:25:44.144Z,1009.38
2016-08-05T05:26:44.141Z,1009.4
2016-08-05T05:27:44.140Z,1009.39
2016-08-05T05:28:44.135Z,1009.42
2016-08-05T05:29:44.132Z,1009.41
2016-08-05T05:30:44.130Z,1009.44
2016-08-05T05:31:44.127Z,1009.44
2016-08-05T05:32:44.126Z,1009.47
2016-08-05T05:33:44.123Z,1009.48
2016-08-05T05:34:44.118Z,1009.47
2016-08-05T05:35:44.115Z,1009.47
2016-08-05T05:36:44.115Z,1009.48
2016-08-05T05:37:44.111Z,1009.48
2016-08-05T05:38:44.108Z,1009.48
2016-08-05T05:39:44.108Z,1009.46
2016-08-05T05:40:44.105Z,1009.43
2016-08-05T05:41:44.102Z,1009.48
2016-08-05T05:42:44.100Z,1009.46
2016-08-05T05:43:44.098Z,1009.44
2016-08-05T05:44:44.095Z,1009.45
2016-08-05T05:45:44.091Z,1009.46
2016-08-05T05:46:44.087Z,1009.41
2016-08-05T05:47:44.086Z,1009.4
2016-08-05T05:48:44.083Z,1009.4
2016-08-05T05:49:44.081Z,1009.38
2016-08-05T05:50:44.079Z,1009.41
2016-08-05T05:51:44.078Z,1009.44
2016-08-05T05:52:44.073Z,1009.44
2016-08-05T05:53:44.072Z,1009.42
2016-08-05T05:54:44.071Z,1009.45
2016-08-05T05:55:44.067Z,1009.42
2016-08-05T05:56:44.066Z,1009.45
2016-08-05T05:57:44.065Z,1009.47
2016-08-05T05:58:44.059Z,1009.48
2016-08-05T05:59:44.057Z,1009.47
2016-08-05T06:00:44.054Z,1009.46
2016-08-05T06:01:44.053Z,1009.47
2016-08-05T06:02:44.060Z,1009.47
2016-08-05T06:03:44.047Z,1009.44
2016-08-05T06:04:44.044Z,1009.47
2016-08-05T06:05:44.043Z,1009.47
2016-08-05T06:06:44.038Z,1009.47
2016-08-05T06:07:44.035Z,1009.52
2016-08-05T06:08:44.033Z,1009.48
2016-08-05T06:09:44.030Z,1009.43
2016-08-05T06:10:44.027Z,1009.47
2016-08-05T06:11:44.026Z,1009.49
2016-08-05T06:12:44.021Z,1009.49
2016-08-05T06:14:44.020Z,1009.5
2016-08-05T06:15:44.016Z,1009.5
2016-08-05T06:16:44.012Z,1009.53
2016-08-05T06:17:44.011Z,1009.54
2016-08-05T06:18:44.009Z,1009.6
2016-08-05T06:19:44.004Z,1009.58
2016-08-05T06:20:44.001Z,1009.61
2016-08-05T06:21:44.001Z,1009.62
2016-08-05T06:23:43.995Z,1009.65
2016-08-05T06:24:44.293Z,1009.66
2016-08-05T06:25:43.989Z,1009.64
2016-08-05T06:26:43.987Z,1009.65
2016-08-05T06:27:43.985Z,1009.67
2016-08-05T06:28:43.984Z,1009.69
2016-08-05T06:29:43.980Z,1009.64
2016-08-05T06:30:43.977Z,1009.66
2016-08-05T06:31:43.978Z,1009.65
2016-08-05T06:32:43.971Z,1009.6
2016-08-05T06:33:43.971Z,1009.58
2016-08-05T06:34:43.966Z,1009.61
2016-08-05T06:35:44.500Z,1009.64
2016-08-05T06:36:43.962Z,1009.66
2016-08-05T06:37:43.959Z,1009.68
2016-08-05T06:38:43.959Z,1009.67
2016-08-05T06:39:45.087Z,1009.7
2016-08-05T06:41:43.949Z,1009.76
2016-08-05T06:42:43.947Z,1009.76
2016-08-05T06:43:43.947Z,1009.77
2016-08-05T06:44:43.945Z,1009.79
2016-08-05T06:45:44.088Z,1009.79
2016-08-05T06:46:43.940Z,1009.84
2016-08-05T06:47:43.936Z,1009.81
2016-08-05T06:48:43.933Z,1009.82
2016-08-05T06:49:43.929Z,1009.81
2016-08-05T06:50:43.927Z,1009.83
2016-08-05T06:51:43.926Z,1009.81
2016-08-05T06:52:43.923Z,1009.81
2016-08-05T06:53:43.920Z,1009.82
2016-08-05T06:54:43.920Z,1009.81
2016-08-05T06:55:43.919Z,1009.85
2016-08-05T06:56:43.914Z,1009.89
2016-08-05T06:57:43.914Z,1009.87
2016-08-05T06:58:43.909Z,1009.89
2016-08-05T06:59:43.907Z,1009.91
2016-08-05T07:00:43.907Z,1009.93
2016-08-05T07:01:43.905Z,1009.99
2016-08-05T07:02:43.903Z,1010.01
2016-08-05T07:03:43.900Z,1010.08
2016-08-05T07:04:43.896Z,1010.13
2016-08-05T07:05:43.896Z,1010.18
2016-08-05T07:06:43.893Z,1010.19
2016-08-05T07:07:43.889Z,1010.2
2016-08-05T07:08:43.889Z,1010.26
2016-08-05T07:09:43.885Z,1010.27
2016-08-05T07:10:43.885Z,1010.27
2016-08-05T07:11:43.881Z,1010.26
2016-08-05T07:12:43.880Z,1010.22
2016-08-05T07:13:43.877Z,1010.23
2016-08-05T07:14:43.874Z,1010.21
2016-08-05T07:15:43.873Z,1010.26
2016-08-05T07:16:43.871Z,1010.24
2016-08-05T07:17:43.871Z,1010.28
2016-08-05T07:18:43.868Z,1010.28
2016-08-05T07:19:43.866Z,1010.25
2016-08-05T07:20:43.864Z,1010.28
2016-08-05T07:21:43.860Z,1010.31
2016-08-05T07:22:43.861Z,1010.31
2016-08-05T07:23:43.859Z,1010.31
2016-08-05T07:24:43.859Z,1010.33
2016-08-05T07:25:43.855Z,1010.34
2016-08-05T07:26:43.856Z,1010.38
2016-08-05T07:27:43.853Z,1010.4
2016-08-05T07:28:43.851Z,1010.42
2016-08-05T07:29:43.851Z,1010.43
2016-08-05T07:30:43.852Z,1010.45
2016-08-05T07:31:43.848Z,1010.47
2016-08-05T07:32:43.848Z,1010.5
2016-08-05T07:33:43.842Z,1010.51
2016-08-05T07:34:43.842Z,1010.51
2016-08-05T07:35:43.841Z,1010.53
2016-08-05T07:36:43.838Z,1010.56
2016-08-05T07:38:43.837Z,1010.59
2016-08-05T07:39:43.837Z,1010.6
2016-08-05T07:40:43.837Z,1010.61
2016-08-05T07:41:43.834Z,1010.62
2016-08-05T07:42:43.831Z,1010.6
2016-08-05T07:43:43.831Z,1010.6
2016-08-05T07:44:43.829Z,1010.61
2016-08-05T07:45:43.928Z,1010.58
2016-08-05T07:46:43.826Z,1010.59
2016-08-05T07:47:43.826Z,1010.57
2016-08-05T07:48:44.911Z,1010.57
2016-08-05T07:49:43.821Z,1010.57
2016-08-05T07:50:43.820Z,1010.58
2016-08-05T07:51:43.821Z,1010.61
2016-08-05T07:52:44.281Z,1010.58
2016-08-05T07:53:43.821Z,1010.62
2016-08-05T07:54:43.816Z,1010.6
2016-08-05T07:55:43.815Z,1010.6
2016-08-05T07:56:43.815Z,1010.59
2016-08-05T07:57:43.814Z,1010.58
2016-08-05T07:58:44.581Z,1010.57
2016-08-05T07:59:43.811Z,1010.59
2016-08-05T08:00:43.810Z,1010.6
2016-08-05T08:01:44.393Z,1010.58
2016-08-05T08:02:43.807Z,1010.59
2016-08-05T08:03:43.807Z,1010.65
2016-08-05T08:04:43.807Z,1010.65
2016-08-05T08:05:43.808Z,1010.63
2016-08-05T08:06:43.803Z,1010.68
2016-08-05T08:07:43.804Z,1010.7
2016-08-05T08:08:43.804Z,1010.71
2016-08-05T08:09:43.803Z,1010.67
2016-08-05T08:10:43.801Z,1010.69
2016-08-05T08:11:43.801Z,1010.66
2016-08-05T08:12:43.799Z,1010.66
2016-08-05T08:13:43.799Z,1010.67
2016-08-05T08:14:43.797Z,1010.65
2016-08-05T08:15:43.798Z,1010.66
2016-08-05T08:16:43.795Z,1010.73
2016-08-05T08:17:43.795Z,1010.68
2016-08-05T08:18:48.996Z,1010.77
2016-08-05T08:19:43.794Z,1010.75
2016-08-05T08:20:43.789Z,1010.75
2016-08-05T08:21:43.791Z,1010.75
2016-08-05T08:22:43.788Z,1010.74
2016-08-05T08:23:43.788Z,1010.73
2016-08-05T08:24:43.786Z,1010.76
2016-08-05T08:25:43.787Z,1010.77
2016-08-05T08:26:43.783Z,1010.77
2016-08-05T08:27:43.783Z,1010.78
2016-08-05T08:28:43.782Z,1010.78
2016-08-05T08:29:43.787Z,1010.83
2016-08-05T08:30:43.778Z,1010.8
2016-08-05T08:31:43.776Z,1010.88
2016-08-05T08:32:43.778Z,1010.87
2016-08-05T08:33:43.778Z,1010.93
2016-08-05T08:34:43.773Z,1010.96
2016-08-05T08:35:43.771Z,1011
2016-08-05T08:36:43.771Z,1011.02
2016-08-05T08:37:43.769Z,1011.04
2016-08-05T08:38:43.767Z,1011.04
2016-08-05T08:39:43.766Z,1011.08
2016-08-05T08:40:43.765Z,1011.04
2016-08-05T08:41:43.767Z,1011.04
2016-08-05T08:42:43.766Z,1011.04
2016-08-05T08:43:43.765Z,1011.04
2016-08-05T08:44:43.762Z,1010.99
2016-08-05T08:45:43.759Z,1011.01
2016-08-05T08:46:44.262Z,1011.06
2016-08-05T08:47:43.760Z,1011.05
2016-08-05T08:48:43.761Z,1011.09
2016-08-05T08:49:43.757Z,1011.08
2016-08-05T08:50:44.310Z,1011.12
2016-08-05T08:51:44.007Z,1011.13
2016-08-05T08:52:43.756Z,1011.16
2016-08-05T08:53:43.755Z,1011.23
2016-08-05T08:54:43.754Z,1011.32
2016-08-05T08:55:43.754Z,1011.37
2016-08-05T08:56:43.754Z,1011.39
2016-08-05T08:57:43.755Z,1011.42
2016-08-05T08:58:43.755Z,1011.42
2016-08-05T08:59:43.753Z,1011.37
2016-08-05T09:00:43.755Z,1011.4
2016-08-05T09:01:43.753Z,1011.42
2016-08-05T09:02:43.756Z,1011.43
2016-08-05T09:03:43.761Z,1011.45
2016-08-05T09:04:43.756Z,1011.43
2016-08-05T09:05:43.755Z,1011.46
2016-08-05T09:06:43.756Z,1011.48
2016-08-05T09:07:44.802Z,1011.51
2016-08-05T09:08:43.760Z,1011.52
2016-08-05T09:09:43.905Z,1011.57
2016-08-05T09:10:43.758Z,1011.59
2016-08-05T09:11:43.760Z,1011.56
2016-08-05T09:12:43.762Z,1011.65
2016-08-05T09:13:43.762Z,1011.66
2016-08-05T09:14:43.763Z,1011.68
2016-08-05T09:15:43.764Z,1011.69
2016-08-05T09:16:43.763Z,1011.67
2016-08-05T09:17:43.767Z,1011.62
2016-08-05T09:18:43.765Z,1011.64
2016-08-05T09:19:43.768Z,1011.61
2016-08-05T09:20:43.771Z,1011.62
2016-08-05T09:21:43.770Z,1011.69
2016-08-05T09:22:44.012Z,1011.78
2016-08-05T09:23:43.772Z,1011.81
2016-08-05T09:24:43.774Z,1011.89
2016-08-05T09:25:43.777Z,1011.87
2016-08-05T09:26:43.781Z,1011.91
2016-08-05T09:27:43.780Z,1011.85
2016-08-05T09:28:43.783Z,1011.83
2016-08-05T09:29:43.782Z,1011.79
2016-08-05T09:30:43.788Z,1011.87
2016-08-05T09:31:43.788Z,1011.83
2016-08-05T09:32:43.796Z,1011.79
2016-08-05T09:33:43.791Z,1011.82
2016-08-05T09:34:43.796Z,1011.81
2016-08-05T09:35:43.799Z,1011.83
2016-08-05T09:36:43.799Z,1011.81
2016-08-05T09:37:43.801Z,1011.88
2016-08-05T09:38:43.804Z,1011.85
2016-08-05T09:39:43.806Z,1011.78
2016-08-05T09:40:43.810Z,1011.74
2016-08-05T09:41:43.813Z,1011.8
2016-08-05T09:42:43.815Z,1011.8
2016-08-05T09:43:43.820Z,1011.73
2016-08-05T09:44:43.823Z,1011.71
2016-08-05T09:45:43.822Z,1011.71
2016-08-05T09:46:43.825Z,1011.72
2016-08-05T09:47:43.827Z,1011.75
2016-08-05T09:48:43.831Z,1011.74
2016-08-05T09:49:43.837Z,1011.74
2016-08-05T09:50:43.842Z,1011.8
2016-08-05T09:51:43.841Z,1011.8
2016-08-05T09:52:43.844Z,1011.82
2016-08-05T09:53:43.850Z,1011.71
2016-08-05T09:54:43.851Z,1011.84
2016-08-05T09:55:43.856Z,1011.89
2016-08-05T09:56:43.859Z,1011.96
2016-08-05T09:57:43.861Z,1011.9
2016-08-05T09:58:43.863Z,1011.98
2016-08-05T09:59:43.870Z,1012.11
2016-08-05T10:00:43.876Z,1012.21
2016-08-05T10:01:43.875Z,1012.26
2016-08-05T10:02:43.877Z,1012.33
2016-08-05T10:03:43.882Z,1012.31
2016-08-05T10:04:43.883Z,1012.26
2016-08-05T10:05:43.899Z,1012.24
2016-08-05T10:06:43.894Z,1012.25
2016-08-05T10:07:44.297Z,1012.22
2016-08-05T10:08:43.899Z,1012.17
2016-08-05T10:09:43.904Z,1012.27
2016-08-05T10:10:44.508Z,1012.36
2016-08-05T10:11:43.910Z,1012.42
2016-08-05T10:12:43.916Z,1012.29
2016-08-05T10:13:43.920Z,1012.2
2016-08-05T10:14:43.926Z,1012.32
2016-08-05T10:15:43.928Z,1012.37
2016-08-05T10:16:44.483Z,1012.36
2016-08-05T10:17:43.936Z,1012.25
2016-08-05T10:18:43.941Z,1012.21
2016-08-05T10:19:43.949Z,1012.13
2016-08-05T10:20:43.950Z,1012.11
2016-08-05T10:21:43.956Z,1012.23
2016-08-05T10:22:43.961Z,1012.35
2016-08-05T10:23:43.979Z,1012.34
2016-08-05T10:24:43.969Z,1012.28
2016-08-05T10:25:43.974Z,1012.26
2016-08-05T10:26:43.982Z,1012.32
2016-08-05T10:27:44.593Z,1012.42
2016-08-05T10:28:43.989Z,1012.37
2016-08-05T10:29:43.995Z,1012.33
2016-08-05T10:30:44.001Z,1012.36
2016-08-05T10:31:44.004Z,1012.5
2016-08-05T10:32:44.011Z,1012.54
2016-08-05T10:33:44.015Z,1012.56
2016-08-05T10:34:44.020Z,1012.51
2016-08-05T10:35:44.029Z,1012.46
2016-08-05T10:36:44.354Z,1012.46
2016-08-05T10:37:44.038Z,1012.42
2016-08-05T10:38:44.045Z,1012.42
2016-08-05T10:39:44.618Z,1012.45
2016-08-05T10:40:44.057Z,1012.44
2016-08-05T10:42:44.065Z,1012.48
2016-08-05T10:43:44.074Z,1012.52
2016-08-05T10:44:44.081Z,1012.65
2016-08-05T10:45:44.085Z,1012.63
2016-08-05T10:46:44.091Z,1012.66
2016-08-05T10:47:44.107Z,1012.67
2016-08-05T10:48:44.104Z,1012.55
2016-08-05T10:49:44.113Z,1012.56
2016-08-05T10:50:44.120Z,1012.61
2016-08-05T10:51:44.124Z,1012.51
2016-08-05T10:52:44.132Z,1012.33
2016-08-05T10:53:44.138Z,1012.23
2016-08-05T10:54:44.147Z,1012.08
2016-08-05T10:55:44.152Z,1011.95
2016-08-05T10:56:44.158Z,1011.98
2016-08-05T10:57:44.167Z,1012.13
2016-08-05T10:58:44.174Z,1012.28
2016-08-05T10:59:44.180Z,1012.31
2016-08-05T11:00:44.185Z,1012.12
2016-08-05T11:01:44.193Z,1012.11
2016-08-05T11:02:44.199Z,1012.21
2016-08-05T11:03:44.207Z,1012.35
2016-08-05T11:04:44.213Z,1012.4
2016-08-05T11:05:44.223Z,1012.38
2016-08-05T11:06:44.229Z,1012.43
2016-08-05T11:07:44.236Z,1012.43
2016-08-05T11:08:44.240Z,1012.45
2016-08-05T11:09:44.249Z,1012.47
2016-08-05T11:10:44.256Z,1012.47
2016-08-05T11:11:44.263Z,1012.5
2016-08-05T11:12:44.269Z,1012.48
2016-08-05T11:13:44.275Z,1012.35
2016-08-05T11:14:44.283Z,1012.2
2016-08-05T11:15:44.289Z,1012.25
2016-08-05T11:16:44.297Z,1012.29
2016-08-05T11:17:44.306Z,1012.26
2016-08-05T11:18:44.313Z,1012.24
2016-08-05T11:19:44.318Z,1012.23
2016-08-05T11:20:44.325Z,1012.26
2016-08-05T11:21:44.335Z,1012.37
2016-08-05T11:22:44.340Z,1012.4
2016-08-05T11:23:44.350Z,1012.51
2016-08-05T11:24:44.357Z,1012.52
2016-08-05T11:25:44.364Z,1012.41
2016-08-05T11:26:44.369Z,1012.29
2016-08-05T11:27:44.377Z,1012.26
2016-08-05T11:28:44.384Z,1012.23
2016-08-05T11:29:44.393Z,1012.29
2016-08-05T11:30:44.399Z,1012.35
2016-08-05T11:31:44.408Z,1012.39
2016-08-05T11:32:44.413Z,1012.43
2016-08-05T11:33:44.420Z,1012.35
2016-08-05T11:34:44.428Z,1012.44
2016-08-05T11:35:44.436Z,1012.42
2016-08-05T11:36:44.442Z,1012.37
2016-08-05T11:37:44.502Z,1012.43
2016-08-05T11:38:44.759Z,1012.56
2016-08-05T11:39:44.467Z,1012.56
2016-08-05T11:40:44.474Z,1012.6
2016-08-05T11:41:44.480Z,1012.63
2016-08-05T11:42:44.486Z,1012.64
2016-08-05T11:43:44.493Z,1012.63
2016-08-05T11:44:44.503Z,1012.57
2016-08-05T11:45:44.510Z,1012.58
2016-08-05T11:46:45.228Z,1012.52
2016-08-05T11:47:44.526Z,1012.43
2016-08-05T11:48:44.534Z,1012.3
2016-08-05T11:49:44.542Z,1012.34
2016-08-05T11:50:44.549Z,1012.52
2016-08-05T11:51:44.557Z,1012.56
2016-08-05T11:52:44.564Z,1012.52
2016-08-05T11:53:44.571Z,1012.58
2016-08-05T11:54:46.142Z,1012.61
2016-08-05T11:55:45.199Z,1012.68
2016-08-05T11:56:44.591Z,1012.7
2016-08-05T11:57:44.599Z,1012.72
2016-08-05T11:58:44.609Z,1012.7
2016-08-05T11:59:44.614Z,1012.69
2016-08-05T12:00:44.622Z,1012.66
2016-08-05T12:01:44.628Z,1012.6
2016-08-05T12:02:44.639Z,1012.54
2016-08-05T12:03:44.647Z,1012.52
2016-08-05T12:04:44.650Z,1012.56
2016-08-05T12:05:44.658Z,1012.58
2016-08-05T12:06:44.667Z,1012.63
2016-08-05T12:07:44.676Z,1012.59
2016-08-05T12:08:44.680Z,1012.56
2016-08-05T12:09:44.688Z,1012.52
2016-08-05T12:10:44.695Z,1012.53
2016-08-05T12:11:44.705Z,1012.45
2016-08-05T12:12:44.710Z,1012.46
2016-08-05T12:13:44.719Z,1012.44
2016-08-05T12:14:44.728Z,1012.53
2016-08-05T12:15:44.735Z,1012.57
2016-08-05T12:16:44.742Z,1012.58
2016-08-05T12:17:44.748Z,1012.58
2016-08-05T12:18:44.756Z,1012.58
2016-08-05T12:19:44.765Z,1012.61
2016-08-05T12:20:44.774Z,1012.67
2016-08-05T12:21:44.777Z,1012.58
2016-08-05T12:22:44.788Z,1012.49